Nelson, Missouri
Current Conditions -  °F | °C
As of 7:55 AM on Thursday 27 Nov 2014 (Local Time) from KMHL Reporting Station
Overcast Overcast  
Wind Chill: 23°   Ceiling: 1600
Heat Index: 30°   Visibility: 10mi
Dew Point: 27°   Wind: 7mph
Humidity: 86%   Direction: 310°NW
Pressure: 30.51"   Gusts: NA
Location:  38.99°N, 93.03°W
Report Text: KMHL 271355Z AUTO 31006KT 10SM OVC016 M01/M03 A3051 RMK AO2
Loading
Personal Weather Stations






























Interactive Weather Map New forecast layout! Learn more

10-Day Weather Forecast

Advertisements
Track Severe Weather on mobile